sensor_id;sensor_type;location;lat;lon;timestamp;temperature;humidity
37324;DHT22;23205;49.986;18.950;2023-02-24T06:15:44;7.20;99.90
37324;DHT22;23205;49.986;18.950;2023-02-24T06:31:36;7.40;99.90
37324;DHT22;23205;49.986;18.950;2023-02-24T06:36:41;7.60;99.90
37324;DHT22;23205;49.986;18.950;2023-02-24T06:41:43;7.40;99.90
37324;DHT22;23205;49.986;18.950;2023-02-24T06:46:43;7.80;99.90
37324;DHT22;23205;49.986;18.950;2023-02-24T07:07:20;7.80;99.90
37324;DHT22;23205;49.986;18.950;2023-02-24T07:17:30;7.70;99.90
37324;DHT22;23205;49.986;18.950;2023-02-24T07:49:11;7.60;99.90
37324;DHT22;23205;49.986;18.950;2023-02-24T09:26:36;8.90;49.30
37324;DHT22;23205;49.986;18.950;2023-02-24T09:31:44;9.00;75.70
37324;DHT22;23205;49.986;18.950;2023-02-24T09:36:52;9.30;81.30
37324;DHT22;23205;49.986;18.950;2023-02-24T09:52:36;10.50;1.00
37324;DHT22;23205;49.986;18.950;2023-02-24T10:40:20;13.90;99.90
37324;DHT22;23205;49.986;18.950;2023-02-24T10:45:29;14.70;99.90
37324;DHT22;23205;49.986;18.950;2023-02-24T10:50:31;13.70;99.90
37324;DHT22;23205;49.986;18.950;2023-02-24T11:00:44;13.90;99.90
37324;DHT22;23205;49.986;18.950;2023-02-24T11:16:42;13.60;99.90
37324;DHT22;23205;49.986;18.950;2023-02-24T11:21:47;12.60;99.90
37324;DHT22;23205;49.986;18.950;2023-02-24T11:42:14;11.00;99.90
37324;DHT22;23205;49.986;18.950;2023-02-24T11:47:24;10.70;99.90
37324;DHT22;23205;49.986;18.950;2023-02-24T11:52:32;10.50;99.90
37324;DHT22;23205;49.986;18.950;2023-02-24T12:02:48;11.30;99.90
37324;DHT22;23205;49.986;18.950;2023-02-24T14:02:56;10.60;99.90
37324;DHT22;23205;49.986;18.950;2023-02-24T16:12:30;9.10;99.90
37324;DHT22;23205;49.986;18.950;2023-02-24T16:17:39;9.00;99.90
37324;DHT22;23205;49.986;18.950;2023-02-24T16:44:11;8.50;99.90
37324;DHT22;23205;49.986;18.950;2023-02-24T16:49:12;8.70;99.90
37324;DHT22;23205;49.986;18.950;2023-02-24T16:54:16;7.80;99.90
37324;DHT22;23205;49.986;18.950;2023-02-24T17:04:23;8.40;99.90
37324;DHT22;23205;49.986;18.950;2023-02-24T17:09:26;9.10;99.90
37324;DHT22;23205;49.986;18.950;2023-02-24T17:14:29;7.80;99.90
37324;DHT22;23205;49.986;18.950;2023-02-24T17:25:22;8.40;99.90
37324;DHT22;23205;49.986;18.950;2023-02-24T17:30:25;8.60;99.90
37324;DHT22;23205;49.986;18.950;2023-02-24T17:35:27;8.50;99.90
37324;DHT22;23205;49.986;18.950;2023-02-24T17:40:28;8.50;99.90
37324;DHT22;23205;49.986;18.950;2023-02-24T17:45:29;8.70;99.90
37324;DHT22;23205;49.986;18.950;2023-02-24T17:50:30;8.80;99.90
37324;DHT22;23205;49.986;18.950;2023-02-24T17:55:30;8.50;99.90
37324;DHT22;23205;49.986;18.950;2023-02-24T18:00:31;8.60;99.90
37324;DHT22;23205;49.986;18.950;2023-02-24T18:05:32;8.80;99.90
37324;DHT22;23205;49.986;18.950;2023-02-24T18:10:33;8.30;99.90
37324;DHT22;23205;49.986;18.950;2023-02-24T18:15:36;9.00;99.90
37324;DHT22;23205;49.986;18.950;2023-02-24T18:20:40;8.80;99.90
37324;DHT22;23205;49.986;18.950;2023-02-24T18:31:10;8.50;99.90
37324;DHT22;23205;49.986;18.950;2023-02-24T18:36:11;8.50;99.90
37324;DHT22;23205;49.986;18.950;2023-02-24T18:41:14;8.30;99.90
37324;DHT22;23205;49.986;18.950;2023-02-24T18:46:15;8.60;99.90
37324;DHT22;23205;49.986;18.950;2023-02-24T18:51:17;8.60;99.90
37324;DHT22;23205;49.986;18.950;2023-02-24T18:56:19;8.60;99.90
37324;DHT22;23205;49.986;18.950;2023-02-24T19:01:22;8.50;99.90
37324;DHT22;23205;49.986;18.950;2023-02-24T19:06:24;8.50;99.90
37324;DHT22;23205;49.986;18.950;2023-02-24T19:11:26;8.40;99.90
37324;DHT22;23205;49.986;18.950;2023-02-24T19:16:28;8.40;99.90
37324;DHT22;23205;49.986;18.950;2023-02-24T19:21:29;8.30;99.90
37324;DHT22;23205;49.986;18.950;2023-02-24T19:26:30;8.40;99.90
37324;DHT22;23205;49.986;18.950;2023-02-24T19:31:31;8.50;99.90
37324;DHT22;23205;49.986;18.950;2023-02-24T19:36:33;8.50;99.90
37324;DHT22;23205;49.986;18.950;2023-02-24T19:41:35;8.60;99.90
37324;DHT22;23205;49.986;18.950;2023-02-24T19:46:36;7.90;99.90
37324;DHT22;23205;49.986;18.950;2023-02-24T19:51:37;8.30;99.90
37324;DHT22;23205;49.986;18.950;2023-02-24T19:56:38;8.30;99.90
37324;DHT22;23205;49.986;18.950;2023-02-24T20:01:39;8.20;99.90
37324;DHT22;23205;49.986;18.950;2023-02-24T20:06:40;8.40;99.90
37324;DHT22;23205;49.986;18.950;2023-02-24T20:11:45;7.50;99.90
37324;DHT22;23205;49.986;18.950;2023-02-24T20:16:46;8.10;99.90
37324;DHT22;23205;49.986;18.950;2023-02-24T20:21:47;7.90;99.90
37324;DHT22;23205;49.986;18.950;2023-02-24T20:26:48;7.50;99.90
37324;DHT22;23205;49.986;18.950;2023-02-24T20:31:49;7.90;99.90
37324;DHT22;23205;49.986;18.950;2023-02-24T20:36:50;7.90;99.90
37324;DHT22;23205;49.986;18.950;2023-02-24T20:41:51;7.90;99.90
37324;DHT22;23205;49.986;18.950;2023-02-24T20:46:53;7.90;99.90
37324;DHT22;23205;49.986;18.950;2023-02-24T20:51:54;7.90;99.90
37324;DHT22;23205;49.986;18.950;2023-02-24T20:56:55;7.20;99.90
37324;DHT22;23205;49.986;18.950;2023-02-24T21:01:56;7.70;99.90
37324;DHT22;23205;49.986;18.950;2023-02-24T21:06:57;8.00;99.90
37324;DHT22;23205;49.986;18.950;2023-02-24T21:11:58;8.30;99.90
37324;DHT22;23205;49.986;18.950;2023-02-24T21:16:59;7.60;99.90
37324;DHT22;23205;49.986;18.950;2023-02-24T21:22:00;8.10;99.90
37324;DHT22;23205;49.986;18.950;2023-02-24T21:27:01;8.10;99.90
37324;DHT22;23205;49.986;18.950;2023-02-24T21:32:01;8.10;99.90
37324;DHT22;23205;49.986;18.950;2023-02-24T21:37:02;8.20;99.90
37324;DHT22;23205;49.986;18.950;2023-02-24T21:42:05;7.40;99.90
37324;DHT22;23205;49.986;18.950;2023-02-24T21:47:09;8.60;99.90
37324;DHT22;23205;49.986;18.950;2023-02-24T21:52:10;6.90;99.90
37324;DHT22;23205;49.986;18.950;2023-02-24T21:57:11;7.00;99.90
37324;DHT22;23205;49.986;18.950;2023-02-24T22:02:12;7.10;99.90
37324;DHT22;23205;49.986;18.950;2023-02-24T22:07:16;6.20;99.90
37324;DHT22;23205;49.986;18.950;2023-02-24T22:12:17;6.80;99.90
37324;DHT22;23205;49.986;18.950;2023-02-24T22:17:20;6.40;99.90
37324;DHT22;23205;49.986;18.950;2023-02-24T22:22:21;6.70;99.90
37324;DHT22;23205;49.986;18.950;2023-02-24T22:27:22;6.70;99.90
37324;DHT22;23205;49.986;18.950;2023-02-24T22:32:22;6.70;99.90
37324;DHT22;23205;49.986;18.950;2023-02-24T22:37:23;6.80;99.90
37324;DHT22;23205;49.986;18.950;2023-02-24T22:42:26;6.80;99.90
37324;DHT22;23205;49.986;18.950;2023-02-24T22:47:28;6.80;99.90
37324;DHT22;23205;49.986;18.950;2023-02-24T22:57:32;6.40;99.90
37324;DHT22;23205;49.986;18.950;2023-02-24T23:02:36;6.40;99.90
37324;DHT22;23205;49.986;18.950;2023-02-24T23:07:37;6.40;99.90
37324;DHT22;23205;49.986;18.950;2023-02-24T23:12:38;6.20;99.90
37324;DHT22;23205;49.986;18.950;2023-02-24T23:17:41;6.50;99.90
37324;DHT22;23205;49.986;18.950;2023-02-24T23:22:42;6.40;99.90
37324;DHT22;23205;49.986;18.950;2023-02-24T23:27:42;5.80;99.90
37324;DHT22;23205;49.986;18.950;2023-02-24T23:32:43;6.70;99.90
37324;DHT22;23205;49.986;18.950;2023-02-24T23:37:44;6.70;99.90
37324;DHT22;23205;49.986;18.950;2023-02-24T23:42:45;6.60;99.90
37324;DHT22;23205;49.986;18.950;2023-02-24T23:47:48;5.30;99.90
37324;DHT22;23205;49.986;18.950;2023-02-24T23:52:49;6.10;99.90
37324;DHT22;23205;49.986;18.950;2023-02-24T23:57:50;6.30;99.90
